createdAt,value
2023-01-26T00:00:26.283Z,5.09
2023-01-26T00:01:28.167Z,5.09
2023-01-26T00:02:30.136Z,5.09
2023-01-26T00:03:34.050Z,5.09
2023-01-26T00:04:35.548Z,5.08
2023-01-26T00:05:37.348Z,5.06
2023-01-26T00:06:39.305Z,5.02
2023-01-26T00:07:41.112Z,4.99
2023-01-26T00:08:42.982Z,4.97
2023-01-26T00:09:44.817Z,4.96
2023-01-26T00:10:46.814Z,4.96
2023-01-26T00:11:48.666Z,4.97
2023-01-26T00:12:50.484Z,4.98
2023-01-26T00:13:52.294Z,4.98
2023-01-26T00:14:54.126Z,4.97
2023-01-26T00:15:56.056Z,4.97
2023-01-26T00:16:58.213Z,4.99
2023-01-26T00:18:00.013Z,4.98
2023-01-26T00:19:01.821Z,4.99
2023-01-26T00:20:03.648Z,4.95
2023-01-26T00:21:05.472Z,4.93
2023-01-26T00:22:07.322Z,4.90
2023-01-26T00:23:17.916Z,4.88
2023-01-26T00:24:19.901Z,4.86
2023-01-26T00:25:21.675Z,4.85
2023-01-26T00:26:23.484Z,4.84
2023-01-26T00:27:25.329Z,4.82
2023-01-26T00:28:27.145Z,4.83
2023-01-26T00:29:28.945Z,4.83
2023-01-26T00:30:30.817Z,4.82
2023-01-26T00:31:32.725Z,4.82
2023-01-26T00:32:34.598Z,4.81
2023-01-26T00:33:36.444Z,4.81
2023-01-26T00:34:38.269Z,4.81
2023-01-26T00:35:40.079Z,4.76
2023-01-26T00:36:41.894Z,4.75
2023-01-26T00:37:43.754Z,4.73
2023-01-26T00:38:45.553Z,4.75
2023-01-26T00:39:47.373Z,4.74
2023-01-26T00:40:49.171Z,4.71
2023-01-26T00:41:51.000Z,4.72
2023-01-26T00:42:52.842Z,4.73
2023-01-26T00:43:54.651Z,4.72
2023-01-26T00:44:56.451Z,4.73
2023-01-26T00:45:58.264Z,4.74
2023-01-26T00:47:00.094Z,4.74
2023-01-26T00:48:01.935Z,4.75
2023-01-26T00:49:03.736Z,4.75
2023-01-26T00:50:05.641Z,4.76
2023-01-26T00:51:07.454Z,4.75
2023-01-26T00:52:09.264Z,4.74
2023-01-26T00:53:11.110Z,4.74
2023-01-26T00:54:12.912Z,4.73
2023-01-26T00:55:14.831Z,4.70
2023-01-26T00:56:16.634Z,4.69
2023-01-26T00:57:18.459Z,4.69
2023-01-26T00:58:20.333Z,4.68
2023-01-26T00:59:22.131Z,4.67
2023-01-26T01:00:24.242Z,4.69
2023-01-26T01:01:26.039Z,4.68
2023-01-26T01:02:27.848Z,4.70
2023-01-26T01:03:29.684Z,4.71
2023-01-26T01:04:31.516Z,4.70
2023-01-26T01:05:33.308Z,4.71
2023-01-26T01:06:35.406Z,4.73
2023-01-26T01:07:37.217Z,4.73
2023-01-26T01:08:39.068Z,4.74
2023-01-26T01:09:40.867Z,4.74
2023-01-26T01:10:42.706Z,4.73
2023-01-26T01:11:44.482Z,4.72
2023-01-26T01:12:46.290Z,4.69
2023-01-26T01:13:48.178Z,4.70
2023-01-26T01:14:49.995Z,4.68
2023-01-26T01:15:51.831Z,4.65
2023-01-26T01:16:53.701Z,4.64
2023-01-26T01:17:55.506Z,4.65
2023-01-26T01:18:57.665Z,4.64
2023-01-26T01:19:59.477Z,4.63
2023-01-26T01:21:01.291Z,4.61
2023-01-26T01:22:03.087Z,4.61
2023-01-26T01:23:04.911Z,4.61
2023-01-26T01:24:06.815Z,4.62
2023-01-26T01:25:08.574Z,4.62
2023-01-26T01:26:10.668Z,4.62
2023-01-26T01:27:12.587Z,4.63
2023-01-26T01:28:14.408Z,4.63
2023-01-26T01:29:16.242Z,4.62
2023-01-26T01:30:18.076Z,4.60
2023-01-26T01:31:19.984Z,4.59
2023-01-26T01:32:21.787Z,4.57
2023-01-26T01:33:23.591Z,4.57
2023-01-26T01:34:25.455Z,4.57
2023-01-26T01:35:27.288Z,4.58
2023-01-26T01:36:29.095Z,4.59
2023-01-26T01:37:30.908Z,4.59
2023-01-26T01:38:32.728Z,4.59
2023-01-26T01:39:34.573Z,4.61
2023-01-26T01:40:36.369Z,4.61
2023-01-26T01:41:38.386Z,4.61
2023-01-26T01:42:40.158Z,4.61
2023-01-26T01:43:41.960Z,4.60
2023-01-26T01:44:43.844Z,4.59
2023-01-26T01:45:45.669Z,4.59
2023-01-26T01:46:47.957Z,4.59
2023-01-26T01:47:49.751Z,4.57
2023-01-26T01:48:51.557Z,4.56
2023-01-26T01:49:53.397Z,4.55
2023-01-26T01:50:55.287Z,4.55
2023-01-26T01:51:57.104Z,4.54
2023-01-26T01:52:58.936Z,4.52
2023-01-26T01:54:00.731Z,4.51
2023-01-26T01:55:02.578Z,4.51
2023-01-26T01:56:04.501Z,4.50
2023-01-26T01:57:06.324Z,4.47
2023-01-26T01:58:08.143Z,4.49
2023-01-26T01:59:09.936Z,4.49
2023-01-26T02:00:12.034Z,4.49
2023-01-26T02:01:13.978Z,4.49
2023-01-26T02:02:15.828Z,4.48
2023-01-26T02:03:17.593Z,4.48
2023-01-26T02:04:19.404Z,4.46
2023-01-26T02:05:21.261Z,4.46
2023-01-26T02:06:23.065Z,4.46
2023-01-26T02:07:24.884Z,4.45
2023-01-26T02:08:26.697Z,4.46
2023-01-26T02:09:28.499Z,4.46
2023-01-26T02:10:30.557Z,4.47
2023-01-26T02:11:32.350Z,4.46
2023-01-26T02:12:34.220Z,4.48
2023-01-26T02:13:36.019Z,4.48
2023-01-26T02:14:37.826Z,4.48
2023-01-26T02:15:39.671Z,4.49
2023-01-26T02:16:41.480Z,4.49
2023-01-26T02:17:43.303Z,4.49
2023-01-26T02:18:45.104Z,4.49
2023-01-26T02:19:46.907Z,4.50
2023-01-26T02:20:48.949Z,4.50
2023-01-26T02:21:50.772Z,4.50
2023-01-26T02:22:52.572Z,4.51
2023-01-26T02:23:54.453Z,4.52
2023-01-26T02:24:56.473Z,4.52
2023-01-26T02:25:58.296Z,4.52
2023-01-26T02:27:00.205Z,4.52
2023-01-26T02:28:02.025Z,4.52
2023-01-26T02:29:03.823Z,4.51
2023-01-26T02:30:06.028Z,4.50
2023-01-26T02:31:07.975Z,4.50
2023-01-26T02:32:09.859Z,4.49
2023-01-26T02:33:11.672Z,4.49
2023-01-26T02:34:13.499Z,4.48
2023-01-26T02:35:15.292Z,4.48
2023-01-26T02:36:17.142Z,4.47
2023-01-26T02:37:18.947Z,4.47
2023-01-26T02:38:20.759Z,4.47
2023-01-26T02:39:23.618Z,4.47
2023-01-26T02:40:25.586Z,4.45
2023-01-26T02:41:27.450Z,4.48
2023-01-26T02:42:29.274Z,4.47
2023-01-26T02:43:31.173Z,4.47
2023-01-26T02:44:32.981Z,4.46
2023-01-26T02:45:34.802Z,4.44
2023-01-26T02:46:36.730Z,4.44
2023-01-26T02:47:38.472Z,4.44
2023-01-26T02:48:40.284Z,4.42
2023-01-26T02:49:42.084Z,4.42
2023-01-26T02:50:43.992Z,4.40
2023-01-26T02:51:45.834Z,4.39
2023-01-26T02:52:47.664Z,4.37
2023-01-26T02:53:49.456Z,4.36
2023-01-26T02:54:51.304Z,4.37
2023-01-26T02:55:53.133Z,4.36
2023-01-26T02:56:55.276Z,4.36
2023-01-26T02:57:57.097Z,4.35
2023-01-26T02:58:58.932Z,4.34
2023-01-26T03:00:00.760Z,4.35
2023-01-26T03:01:02.670Z,4.34
2023-01-26T03:02:04.583Z,4.36
2023-01-26T03:03:06.351Z,4.36
2023-01-26T03:04:08.137Z,4.37
2023-01-26T03:05:09.964Z,4.37
2023-01-26T03:06:11.994Z,4.38
2023-01-26T03:07:13.831Z,4.38
2023-01-26T03:08:15.642Z,4.37
2023-01-26T03:09:17.452Z,4.38
2023-01-26T03:10:19.266Z,4.38
2023-01-26T03:11:21.081Z,4.39
2023-01-26T03:12:22.955Z,4.37
2023-01-26T03:13:24.761Z,4.36
2023-01-26T03:14:26.612Z,4.36
2023-01-26T03:15:28.474Z,4.37
2023-01-26T03:16:30.415Z,4.36
2023-01-26T03:17:32.218Z,4.35
2023-01-26T03:18:34.053Z,4.35
2023-01-26T03:19:35.847Z,4.35
2023-01-26T03:20:37.660Z,4.36
2023-01-26T03:21:39.474Z,4.35
2023-01-26T03:22:41.306Z,4.35
2023-01-26T03:23:43.123Z,4.34
2023-01-26T03:24:44.932Z,4.34
2023-01-26T03:25:46.755Z,4.33
2023-01-26T03:26:48.660Z,4.29
2023-01-26T03:27:50.504Z,4.25
2023-01-26T03:28:52.334Z,4.24
2023-01-26T03:29:54.148Z,4.22
2023-01-26T03:30:56.027Z,4.21
2023-01-26T03:31:57.877Z,4.20
2023-01-26T03:32:59.733Z,4.19
2023-01-26T03:34:01.554Z,4.19
2023-01-26T03:35:03.371Z,4.18
2023-01-26T03:36:05.268Z,4.17
2023-01-26T03:37:07.078Z,4.15
2023-01-26T03:38:10.008Z,4.12
2023-01-26T03:39:11.845Z,4.08
2023-01-26T03:40:14.065Z,4.04
2023-01-26T03:41:15.969Z,4.00
2023-01-26T03:42:17.777Z,3.99
2023-01-26T03:43:19.629Z,3.97
2023-01-26T03:44:21.446Z,3.96
2023-01-26T03:45:23.290Z,3.95
2023-01-26T03:46:25.213Z,3.97
2023-01-26T03:47:26.999Z,3.96
2023-01-26T03:48:28.853Z,3.92
2023-01-26T03:49:30.686Z,3.90
2023-01-26T03:50:32.587Z,3.88
2023-01-26T03:51:34.395Z,3.88
2023-01-26T03:52:36.195Z,3.87
2023-01-26T03:53:38.060Z,3.87
2023-01-26T03:54:39.875Z,3.85
2023-01-26T03:55:41.685Z,3.88
2023-01-26T03:56:43.730Z,3.88
2023-01-26T03:57:45.523Z,3.88
2023-01-26T03:58:47.375Z,3.88
2023-01-26T03:59:49.193Z,3.88
2023-01-26T04:00:51.171Z,3.90
2023-01-26T04:01:53.028Z,3.90
2023-01-26T04:02:54.809Z,3.92
2023-01-26T04:03:56.672Z,3.94
2023-01-26T04:04:58.478Z,3.94
2023-01-26T04:06:15.501Z,3.95
2023-01-26T04:07:03.920Z,3.96
2023-01-26T04:08:05.765Z,3.96
2023-01-26T04:09:07.626Z,3.97
2023-01-26T04:10:10.343Z,3.95
2023-01-26T04:11:12.484Z,3.95
2023-01-26T04:12:14.273Z,3.95
2023-01-26T04:13:16.111Z,3.96
2023-01-26T04:14:17.973Z,3.96
2023-01-26T04:15:19.781Z,3.96
2023-01-26T04:16:21.724Z,3.95
2023-01-26T04:17:23.510Z,3.92
2023-01-26T04:18:25.316Z,3.90
2023-01-26T04:19:27.277Z,3.89
2023-01-26T04:20:29.177Z,3.88
2023-01-26T04:21:30.989Z,3.89
2023-01-26T04:22:32.793Z,3.87
2023-01-26T04:23:34.608Z,3.84
2023-01-26T04:24:36.481Z,3.81
2023-01-26T04:25:38.291Z,3.78
2023-01-26T04:26:40.195Z,3.78
2023-01-26T04:27:42.006Z,3.75
2023-01-26T04:28:43.825Z,3.75
2023-01-26T04:29:45.678Z,3.72
2023-01-26T04:30:47.605Z,3.71
2023-01-26T04:31:49.540Z,3.69
2023-01-26T04:32:51.373Z,3.67
2023-01-26T04:33:53.196Z,3.66
2023-01-26T04:34:55.027Z,3.65
2023-01-26T04:35:56.847Z,3.65
2023-01-26T04:36:58.639Z,3.65
2023-01-26T04:38:00.461Z,3.65
2023-01-26T04:39:02.276Z,3.62
2023-01-26T04:40:04.263Z,3.60
2023-01-26T04:41:06.088Z,3.59
2023-01-26T04:42:07.859Z,3.59
2023-01-26T04:43:09.666Z,3.59
2023-01-26T04:44:11.483Z,3.57
2023-01-26T04:45:13.336Z,3.54
2023-01-26T04:46:15.242Z,3.53
2023-01-26T04:47:17.130Z,3.50
2023-01-26T04:48:18.949Z,3.48
2023-01-26T04:49:20.766Z,3.44
2023-01-26T04:50:22.608Z,3.40
2023-01-26T04:51:24.413Z,3.36
2023-01-26T04:52:26.215Z,3.33
2023-01-26T04:53:28.026Z,3.31
2023-01-26T04:54:29.838Z,3.28
2023-01-26T04:55:31.686Z,3.27
2023-01-26T04:56:33.488Z,3.26
2023-01-26T04:57:35.293Z,3.22
2023-01-26T04:58:37.114Z,3.19
2023-01-26T04:59:38.917Z,3.19
2023-01-26T05:00:40.893Z,3.17
2023-01-26T05:01:42.721Z,3.14
2023-01-26T05:02:44.553Z,3.15
2023-01-26T05:03:46.364Z,3.16
2023-01-26T05:04:48.154Z,3.17
2023-01-26T05:05:50.001Z,3.17
2023-01-26T05:06:52.125Z,3.17
2023-01-26T05:07:53.933Z,3.18
2023-01-26T05:08:55.727Z,3.18
2023-01-26T05:09:57.533Z,3.18
2023-01-26T05:10:59.701Z,3.18
2023-01-26T05:12:01.536Z,3.17
2023-01-26T05:13:03.334Z,3.15
2023-01-26T05:14:05.146Z,3.15
2023-01-26T05:15:06.956Z,3.16
2023-01-26T05:16:09.081Z,3.17
2023-01-26T05:17:10.923Z,3.19
2023-01-26T05:18:12.791Z,3.21
2023-01-26T05:19:14.591Z,3.20
2023-01-26T05:20:16.392Z,3.22
2023-01-26T05:21:18.268Z,3.22
2023-01-26T05:22:20.071Z,3.23
2023-01-26T05:23:21.890Z,3.25
2023-01-26T05:24:23.939Z,3.27
2023-01-26T05:25:25.821Z,3.29
2023-01-26T05:26:27.642Z,3.32
2023-01-26T05:27:29.443Z,3.34
2023-01-26T05:28:31.249Z,3.36
2023-01-26T05:29:33.058Z,3.37
2023-01-26T05:30:34.903Z,3.41
2023-01-26T05:31:36.798Z,3.42
2023-01-26T05:32:38.640Z,3.44
2023-01-26T05:33:40.477Z,3.44
2023-01-26T05:34:42.290Z,3.42
2023-01-26T05:35:44.100Z,3.43
2023-01-26T05:36:45.945Z,3.43
2023-01-26T05:37:47.864Z,3.46
2023-01-26T05:38:49.689Z,3.47
2023-01-26T05:39:51.493Z,3.47
2023-01-26T05:40:53.398Z,3.48
2023-01-26T05:41:55.268Z,3.49
2023-01-26T05:42:57.105Z,3.49
2023-01-26T05:43:58.910Z,3.48
2023-01-26T05:45:00.723Z,3.48
2023-01-26T05:46:02.583Z,3.45
2023-01-26T05:47:04.497Z,3.46
2023-01-26T05:48:06.269Z,3.45
2023-01-26T05:49:08.160Z,3.45
2023-01-26T05:50:10.695Z,3.47
2023-01-26T05:51:12.692Z,3.46
2023-01-26T05:52:14.554Z,3.46
2023-01-26T05:53:16.402Z,3.44
2023-01-26T05:54:18.209Z,3.43
2023-01-26T05:55:20.127Z,3.43
2023-01-26T05:56:21.942Z,3.44
2023-01-26T05:57:23.780Z,3.46
2023-01-26T05:58:25.581Z,3.47
2023-01-26T05:59:27.370Z,3.47
2023-01-26T06:00:29.387Z,3.48
2023-01-26T06:01:31.188Z,3.48
2023-01-26T06:02:33.062Z,3.49
2023-01-26T06:03:34.835Z,3.48
2023-01-26T06:04:36.756Z,3.47
2023-01-26T06:05:38.494Z,3.49
2023-01-26T06:06:40.385Z,3.49
2023-01-26T06:07:42.242Z,3.49
2023-01-26T06:08:44.072Z,3.50
2023-01-26T06:09:45.875Z,3.52
2023-01-26T06:10:48.004Z,3.53
2023-01-26T06:11:49.776Z,3.56
2023-01-26T06:12:51.639Z,3.59
2023-01-26T06:13:53.463Z,3.61
2023-01-26T06:14:55.248Z,3.64
2023-01-26T06:15:57.078Z,3.65
2023-01-26T06:16:58.944Z,3.67
2023-01-26T06:18:00.770Z,3.70
2023-01-26T06:19:02.574Z,3.75
2023-01-26T06:20:04.494Z,3.79
2023-01-26T06:21:06.293Z,3.82
2023-01-26T06:22:08.104Z,3.86
2023-01-26T06:23:09.969Z,3.89
2023-01-26T06:24:11.797Z,3.95
2023-01-26T06:25:13.576Z,3.98
2023-01-26T06:26:15.397Z,4.02
2023-01-26T06:27:17.212Z,4.05
2023-01-26T06:28:19.054Z,4.10
2023-01-26T06:29:20.869Z,4.14
2023-01-26T06:30:22.777Z,4.20
2023-01-26T06:31:24.763Z,4.24
2023-01-26T06:32:26.745Z,4.30
2023-01-26T06:33:28.596Z,4.35
2023-01-26T06:34:30.514Z,4.38
2023-01-26T06:35:32.538Z,4.42
2023-01-26T06:36:34.447Z,4.44
2023-01-26T06:37:36.275Z,4.49
2023-01-26T06:38:38.101Z,4.51
2023-01-26T06:39:39.910Z,4.53
2023-01-26T06:40:41.931Z,4.54
2023-01-26T06:41:43.805Z,4.55
2023-01-26T06:42:45.608Z,4.58
2023-01-26T06:43:47.464Z,4.60
2023-01-26T06:44:49.333Z,4.64
2023-01-26T06:45:51.175Z,4.65
2023-01-26T06:46:53.152Z,4.65
2023-01-26T06:47:54.973Z,4.67
2023-01-26T06:48:56.966Z,4.70
2023-01-26T06:49:58.808Z,4.73
2023-01-26T06:51:00.680Z,4.74
2023-01-26T06:52:02.610Z,4.75
2023-01-26T06:53:04.431Z,4.77
2023-01-26T06:54:06.268Z,4.81
2023-01-26T06:55:08.064Z,4.81
2023-01-26T06:56:10.181Z,4.81
2023-01-26T06:57:11.988Z,4.82
2023-01-26T06:58:13.832Z,4.81
2023-01-26T06:59:15.664Z,4.81
2023-01-26T07:00:17.514Z,4.81
2023-01-26T07:01:19.597Z,4.80
2023-01-26T07:02:21.631Z,4.77
2023-01-26T07:03:23.506Z,4.77
2023-01-26T07:04:25.358Z,4.75
2023-01-26T07:05:27.170Z,4.76
2023-01-26T07:06:29.191Z,4.77
2023-01-26T07:07:31.003Z,4.75
2023-01-26T07:08:32.795Z,4.73
2023-01-26T07:09:34.655Z,4.75
2023-01-26T07:10:36.666Z,4.74
2023-01-26T07:11:38.479Z,4.74
2023-01-26T07:12:40.271Z,4.73
2023-01-26T07:13:42.092Z,4.74
2023-01-26T07:14:43.957Z,4.76
2023-01-26T07:15:45.786Z,4.76
2023-01-26T07:16:47.774Z,4.77
2023-01-26T07:17:49.617Z,4.77
2023-01-26T07:18:51.434Z,4.77
2023-01-26T07:19:53.288Z,4.73
2023-01-26T07:20:55.299Z,4.68
2023-01-26T07:21:57.215Z,4.66
2023-01-26T07:22:58.979Z,4.68
2023-01-26T07:24:00.841Z,4.69
2023-01-26T07:25:02.811Z,4.69
2023-01-26T07:26:04.795Z,4.68
2023-01-26T07:27:06.627Z,4.69
2023-01-26T07:28:08.425Z,4.71
2023-01-26T07:29:10.274Z,4.72
2023-01-26T07:30:12.524Z,4.70
2023-01-26T07:31:14.529Z,4.70
2023-01-26T07:32:16.509Z,4.69
2023-01-26T07:33:18.326Z,4.71
2023-01-26T07:34:20.149Z,4.74
2023-01-26T07:35:22.036Z,4.74
2023-01-26T07:36:23.824Z,4.75
2023-01-26T07:37:25.655Z,4.74
2023-01-26T07:38:27.753Z,4.71
2023-01-26T07:39:29.570Z,4.70
2023-01-26T07:40:31.542Z,4.70
2023-01-26T07:41:33.336Z,4.72
2023-01-26T07:42:35.161Z,4.75
2023-01-26T07:43:37.025Z,4.72
2023-01-26T07:44:38.881Z,4.72
2023-01-26T07:45:40.762Z,4.69
2023-01-26T07:46:44.119Z,4.67
2023-01-26T07:47:46.212Z,4.67
2023-01-26T07:48:48.009Z,4.66
2023-01-26T07:49:49.816Z,4.66
2023-01-26T07:50:52.015Z,4.66
2023-01-26T07:51:53.835Z,4.60
2023-01-26T07:52:55.672Z,4.58
2023-01-26T07:53:57.461Z,4.58
2023-01-26T07:54:59.324Z,4.61
2023-01-26T07:56:01.175Z,4.64
2023-01-26T07:57:02.981Z,4.65
2023-01-26T07:58:04.804Z,4.63
2023-01-26T07:59:06.604Z,4.63
2023-01-26T08:00:09.584Z,4.65
2023-01-26T08:01:11.853Z,4.69
2023-01-26T08:02:13.691Z,4.72
2023-01-26T08:03:15.521Z,4.79
2023-01-26T08:04:17.311Z,4.79
2023-01-26T08:05:19.124Z,4.82
2023-01-26T08:06:21.103Z,4.83
2023-01-26T08:07:23.009Z,4.85
2023-01-26T08:08:24.881Z,4.88
2023-01-26T08:09:26.693Z,4.90
2023-01-26T08:10:28.818Z,4.92
2023-01-26T08:11:30.763Z,4.93
2023-01-26T08:12:32.586Z,4.97
2023-01-26T08:13:36.094Z,4.96
2023-01-26T08:14:46.382Z,5.01
2023-01-26T08:15:41.816Z,5.04
2023-01-26T08:16:43.692Z,5.09
2023-01-26T08:17:45.543Z,5.10
2023-01-26T08:18:47.372Z,5.12
2023-01-26T08:19:49.243Z,5.15
2023-01-26T08:20:51.279Z,5.17
2023-01-26T08:21:53.168Z,5.20
2023-01-26T08:22:55.092Z,5.20
2023-01-26T08:23:57.010Z,5.20
2023-01-26T08:24:58.777Z,5.19
2023-01-26T08:26:00.640Z,5.20
2023-01-26T08:27:02.471Z,5.22
2023-01-26T08:28:04.287Z,5.24
2023-01-26T08:29:06.085Z,5.28
2023-01-26T08:30:08.197Z,5.30
2023-01-26T08:31:10.021Z,5.32
2023-01-26T08:32:11.856Z,5.35
2023-01-26T08:33:13.663Z,5.35
2023-01-26T08:34:15.481Z,5.34
2023-01-26T08:35:17.309Z,5.33
2023-01-26T08:36:21.979Z,5.30
2023-01-26T08:37:22.786Z,5.28
2023-01-26T08:38:24.608Z,5.30
2023-01-26T08:39:26.519Z,5.32
2023-01-26T08:40:28.523Z,5.32
2023-01-26T08:41:30.380Z,5.33
2023-01-26T08:42:32.286Z,5.34
2023-01-26T08:43:34.087Z,5.34
2023-01-26T08:44:35.988Z,5.41
2023-01-26T08:45:37.825Z,5.40
2023-01-26T08:46:40.025Z,5.42
2023-01-26T08:47:41.922Z,5.42
2023-01-26T08:48:43.763Z,5.45
2023-01-26T08:49:45.633Z,5.47
2023-01-26T08:50:47.489Z,5.49
2023-01-26T08:51:49.255Z,5.53
2023-01-26T08:52:51.116Z,5.55
2023-01-26T08:53:52.916Z,5.55
2023-01-26T08:54:54.837Z,5.54
2023-01-26T08:55:56.631Z,5.55
2023-01-26T08:56:58.555Z,5.57
2023-01-26T08:58:00.422Z,5.59
2023-01-26T08:59:02.224Z,5.59
2023-01-26T09:00:04.072Z,5.65
2023-01-26T09:01:05.918Z,5.70
2023-01-26T09:02:07.766Z,5.73
2023-01-26T09:03:09.900Z,5.75
2023-01-26T09:04:11.803Z,5.76
2023-01-26T09:05:13.602Z,5.76
2023-01-26T09:06:15.517Z,5.79
2023-01-26T09:07:17.410Z,5.82
2023-01-26T09:08:19.279Z,5.85
2023-01-26T09:09:21.081Z,5.86
2023-01-26T09:10:23.047Z,5.89
2023-01-26T09:11:24.862Z,5.92
2023-01-26T09:12:26.665Z,5.92
2023-01-26T09:13:28.526Z,5.94
2023-01-26T09:14:30.352Z,5.98
2023-01-26T09:15:32.194Z,6.01
2023-01-26T09:16:34.348Z,6.03
2023-01-26T09:17:36.149Z,6.05
2023-01-26T09:18:38.002Z,6.05
2023-01-26T09:19:39.804Z,6.03
2023-01-26T09:20:41.737Z,6.05
2023-01-26T09:21:43.563Z,6.06
2023-01-26T09:22:45.358Z,6.04
2023-01-26T09:23:47.286Z,6.06
2023-01-26T09:24:49.111Z,6.05
2023-01-26T09:25:50.950Z,6.07
2023-01-26T09:26:52.779Z,6.07
2023-01-26T09:27:54.592Z,6.06
2023-01-26T09:28:56.461Z,6.07
2023-01-26T09:29:58.261Z,6.08
2023-01-26T09:31:00.355Z,6.07
2023-01-26T09:32:02.218Z,6.09
2023-01-26T09:33:03.999Z,6.11
2023-01-26T09:34:05.861Z,6.11
2023-01-26T09:35:07.669Z,6.09
2023-01-26T09:36:09.864Z,6.08
2023-01-26T09:37:11.691Z,6.09
2023-01-26T09:38:13.512Z,6.11
2023-01-26T09:39:15.382Z,6.14
2023-01-26T09:40:17.183Z,6.14
2023-01-26T09:41:19.087Z,6.12
2023-01-26T09:42:20.897Z,6.12
2023-01-26T09:43:22.723Z,6.16
2023-01-26T09:44:24.616Z,6.17
2023-01-26T09:45:26.405Z,6.18
2023-01-26T09:46:28.256Z,6.18
2023-01-26T09:47:30.030Z,6.19
2023-01-26T09:48:31.843Z,6.18
2023-01-26T09:49:33.735Z,6.20
2023-01-26T09:50:35.499Z,6.20
2023-01-26T09:51:37.313Z,6.20
2023-01-26T09:52:39.114Z,6.21
2023-01-26T09:53:40.911Z,6.21
2023-01-26T09:54:42.773Z,6.23
2023-01-26T09:55:44.590Z,6.21
2023-01-26T09:56:46.807Z,6.25
2023-01-26T09:57:48.630Z,6.25
2023-01-26T09:58:50.440Z,6.24
2023-01-26T09:59:52.288Z,6.24
2023-01-26T10:00:54.202Z,6.25
2023-01-26T10:01:55.995Z,6.20
2023-01-26T10:02:57.962Z,6.25
2023-01-26T10:04:02.574Z,6.28
2023-01-26T10:05:04.529Z,6.30
2023-01-26T10:06:06.526Z,6.32
2023-01-26T10:07:08.358Z,6.30
2023-01-26T10:08:10.135Z,6.25
2023-01-26T10:09:11.946Z,6.23
2023-01-26T10:10:13.792Z,6.25
2023-01-26T10:11:15.609Z,6.19
2023-01-26T10:12:17.467Z,6.17
2023-01-26T10:13:19.262Z,6.17
2023-01-26T10:14:21.161Z,6.16
2023-01-26T10:15:23.030Z,6.15
2023-01-26T10:16:25.120Z,6.17
2023-01-26T10:17:26.961Z,6.16
2023-01-26T10:18:28.879Z,6.20
2023-01-26T10:19:30.669Z,6.21
2023-01-26T10:20:32.638Z,6.25
2023-01-26T10:21:34.436Z,6.25
2023-01-26T10:22:36.262Z,6.27
2023-01-26T10:23:38.053Z,6.30
2023-01-26T10:24:39.894Z,6.31
2023-01-26T10:25:41.757Z,6.33
2023-01-26T10:26:43.677Z,6.34
2023-01-26T10:27:45.508Z,6.35
2023-01-26T10:28:47.318Z,6.35
2023-01-26T10:29:49.112Z,6.37
2023-01-26T10:30:51.508Z,6.35
2023-01-26T10:31:53.586Z,6.36
2023-01-26T10:32:55.376Z,6.37
2023-01-26T10:33:57.195Z,6.40
2023-01-26T10:34:58.987Z,6.40
2023-01-26T10:36:00.991Z,6.39
2023-01-26T10:37:02.831Z,6.41
2023-01-26T10:38:04.605Z,6.41
2023-01-26T10:39:06.400Z,6.40
2023-01-26T10:40:08.301Z,6.38
2023-01-26T10:41:10.163Z,6.39
2023-01-26T10:42:11.966Z,6.41
2023-01-26T10:43:14.411Z,6.42
2023-01-26T10:44:16.214Z,6.42
2023-01-26T10:45:18.013Z,6.41
2023-01-26T10:46:20.009Z,6.37
2023-01-26T10:47:21.803Z,6.34
2023-01-26T10:48:23.593Z,6.36
2023-01-26T10:49:25.401Z,6.38
2023-01-26T10:50:27.333Z,6.37
2023-01-26T10:51:29.179Z,6.37
2023-01-26T10:52:30.988Z,6.40
2023-01-26T10:53:32.778Z,6.39
2023-01-26T10:54:34.594Z,6.42
2023-01-26T10:55:36.438Z,6.43
2023-01-26T10:56:38.374Z,6.44
2023-01-26T10:57:40.157Z,6.46
2023-01-26T10:58:42.067Z,6.48
2023-01-26T10:59:43.904Z,6.47
2023-01-26T11:00:45.692Z,6.47
2023-01-26T11:01:47.563Z,6.51
2023-01-26T11:02:49.434Z,6.51
2023-01-26T11:03:51.219Z,6.52
2023-01-26T11:04:53.037Z,6.54
2023-01-26T11:05:54.842Z,6.55
2023-01-26T11:06:56.804Z,6.58
2023-01-26T11:07:58.648Z,6.61
2023-01-26T11:09:00.420Z,6.62
2023-01-26T11:10:02.254Z,6.63
2023-01-26T11:11:04.164Z,6.62
2023-01-26T11:12:06.006Z,6.61
2023-01-26T11:13:07.823Z,6.61
2023-01-26T11:14:09.657Z,6.62
2023-01-26T11:15:11.845Z,6.62
2023-01-26T11:16:14.018Z,6.62
2023-01-26T11:17:15.934Z,6.63
2023-01-26T11:18:17.726Z,6.63
2023-01-26T11:19:21.018Z,6.67
2023-01-26T11:20:22.924Z,6.68
2023-01-26T11:21:24.734Z,6.70
2023-01-26T11:22:26.599Z,6.73
2023-01-26T11:23:28.409Z,6.77
2023-01-26T11:24:30.270Z,6.80
2023-01-26T11:25:32.104Z,6.85
2023-01-26T11:26:34.009Z,6.89
2023-01-26T11:27:35.919Z,6.92
2023-01-26T11:28:37.745Z,6.96
2023-01-26T11:29:39.636Z,6.97
2023-01-26T11:30:41.790Z,6.99
2023-01-26T11:31:43.583Z,6.99
2023-01-26T11:32:45.426Z,7.01
2023-01-26T11:33:47.224Z,7.03
2023-01-26T11:34:49.037Z,7.04
2023-01-26T11:35:50.851Z,7.04
2023-01-26T11:36:52.675Z,7.05
2023-01-26T11:37:54.530Z,7.06
2023-01-26T11:38:56.349Z,7.04
2023-01-26T11:39:58.165Z,7.03
2023-01-26T11:41:00.074Z,7.03
2023-01-26T11:42:01.901Z,7.05
2023-01-26T11:43:03.761Z,7.08
2023-01-26T11:44:05.645Z,7.10
2023-01-26T11:45:07.521Z,7.14
2023-01-26T11:46:09.652Z,7.14
2023-01-26T11:47:11.444Z,7.15
2023-01-26T11:48:13.303Z,7.16
2023-01-26T11:49:15.154Z,7.14
2023-01-26T11:50:17.072Z,7.13
2023-01-26T11:51:18.872Z,7.13
2023-01-26T11:52:20.845Z,7.15
2023-01-26T11:53:22.824Z,7.15
2023-01-26T11:54:24.640Z,7.16
2023-01-26T11:55:26.426Z,7.16
2023-01-26T11:56:28.261Z,7.17
2023-01-26T11:57:30.083Z,7.16
2023-01-26T11:58:31.920Z,7.17
2023-01-26T11:59:36.625Z,7.20
2023-01-26T12:00:37.537Z,7.19
2023-01-26T12:01:39.335Z,7.20
2023-01-26T12:02:41.167Z,7.21
2023-01-26T12:03:43.034Z,7.22
2023-01-26T12:04:44.828Z,7.26
2023-01-26T12:05:46.623Z,7.32
2023-01-26T12:06:48.531Z,7.28
2023-01-26T12:07:50.334Z,7.29
2023-01-26T12:08:52.206Z,7.28
2023-01-26T12:09:54.036Z,7.28
2023-01-26T12:10:55.946Z,7.30
2023-01-26T12:11:57.749Z,7.30
2023-01-26T12:12:59.585Z,7.29
2023-01-26T12:14:01.465Z,7.26
2023-01-26T12:15:05.818Z,7.28
2023-01-26T12:16:07.223Z,7.30
2023-01-26T12:17:18.146Z,7.31
2023-01-26T12:18:12.651Z,7.33
2023-01-26T12:19:14.493Z,7.35
2023-01-26T12:20:16.407Z,7.34
2023-01-26T12:21:18.209Z,7.36
2023-01-26T12:22:20.052Z,7.39
2023-01-26T12:23:21.898Z,7.39
2023-01-26T12:24:46.777Z,7.39
2023-01-26T12:25:27.368Z,7.40
2023-01-26T12:26:29.281Z,7.40
2023-01-26T12:27:31.098Z,7.40
2023-01-26T12:28:32.927Z,7.41
2023-01-26T12:29:37.580Z,7.41
2023-01-26T12:30:39.599Z,7.41
2023-01-26T12:31:41.481Z,7.41
2023-01-26T12:32:43.355Z,7.40
2023-01-26T12:33:45.187Z,7.41
2023-01-26T12:34:47.088Z,7.40
2023-01-26T12:35:48.899Z,7.40
2023-01-26T12:36:50.827Z,7.39
2023-01-26T12:37:52.640Z,7.38
2023-01-26T12:38:54.626Z,7.37
2023-01-26T12:39:56.510Z,7.37
2023-01-26T12:40:58.315Z,7.36
2023-01-26T12:42:00.123Z,7.37
2023-01-26T12:43:01.940Z,7.39
2023-01-26T12:44:03.786Z,7.39
2023-01-26T12:45:05.662Z,7.41
2023-01-26T12:46:07.490Z,7.43
2023-01-26T12:47:09.333Z,7.43
2023-01-26T12:48:11.156Z,7.40
2023-01-26T12:49:12.971Z,7.37
2023-01-26T12:50:15.322Z,7.36
2023-01-26T12:51:17.435Z,7.38
2023-01-26T12:52:19.251Z,7.38
2023-01-26T12:53:21.059Z,7.40
2023-01-26T12:54:22.880Z,7.42
2023-01-26T12:55:24.733Z,7.44
2023-01-26T12:56:26.538Z,7.47
2023-01-26T12:57:28.342Z,7.49
2023-01-26T12:58:30.169Z,7.50
2023-01-26T12:59:47.372Z,7.49
2023-01-26T13:00:35.684Z,7.49
2023-01-26T13:01:37.589Z,7.51
2023-01-26T13:02:39.576Z,7.53
2023-01-26T13:03:41.408Z,7.53
2023-01-26T13:04:43.234Z,7.54
2023-01-26T13:05:45.092Z,7.54
2023-01-26T13:06:46.887Z,7.54
2023-01-26T13:07:48.707Z,7.55
2023-01-26T13:08:50.538Z,7.57
2023-01-26T13:09:52.341Z,7.60
2023-01-26T13:10:54.499Z,7.60
2023-01-26T13:11:56.424Z,7.60
2023-01-26T13:12:58.214Z,7.61
2023-01-26T13:14:00.035Z,7.60
2023-01-26T13:15:01.859Z,7.60
2023-01-26T13:16:03.889Z,7.60
2023-01-26T13:17:05.765Z,7.58
2023-01-26T13:18:07.731Z,7.56
2023-01-26T13:19:09.580Z,7.55
2023-01-26T13:20:12.123Z,7.56
2023-01-26T13:21:14.177Z,7.60
2023-01-26T13:22:16.002Z,7.60
2023-01-26T13:23:17.826Z,7.59
2023-01-26T13:24:19.660Z,7.58
2023-01-26T13:25:21.434Z,7.57
2023-01-26T13:26:23.281Z,7.58
2023-01-26T13:27:25.091Z,7.57
2023-01-26T13:28:26.896Z,7.56
2023-01-26T13:29:28.720Z,7.53
2023-01-26T13:30:30.669Z,7.53
2023-01-26T13:31:32.523Z,7.54
2023-01-26T13:32:34.305Z,7.55
2023-01-26T13:33:36.147Z,7.55
2023-01-26T13:34:37.955Z,7.55
2023-01-26T13:35:39.771Z,7.56
2023-01-26T13:36:41.732Z,7.56
2023-01-26T13:37:43.555Z,7.57
2023-01-26T13:38:45.377Z,7.59
2023-01-26T13:39:47.196Z,7.62
2023-01-26T13:40:49.092Z,7.61
2023-01-26T13:41:50.970Z,7.61
2023-01-26T13:42:52.799Z,7.59
2023-01-26T13:43:54.616Z,7.57